createdAt,value
2019-06-01T00:01:06.643Z,99.90
2019-06-01T00:03:40.176Z,99.90
2019-06-01T00:06:10.585Z,99.90
2019-06-01T00:08:41.436Z,99.90
2019-06-01T00:11:11.563Z,99.90
2019-06-01T00:13:41.937Z,99.90
2019-06-01T00:16:12.021Z,99.90
2019-06-01T00:18:43.984Z,99.90
2019-06-01T00:21:15.359Z,99.90
2019-06-01T00:23:46.518Z,99.90
2019-06-01T00:26:16.842Z,99.90
2019-06-01T00:28:47.919Z,99.90
2019-06-01T00:31:18.018Z,99.90
2019-06-01T00:33:49.528Z,99.90
2019-06-01T00:36:20.583Z,99.90
2019-06-01T00:38:51.910Z,99.90
2019-06-01T00:41:22.386Z,99.90
2019-06-01T00:43:52.576Z,99.90
2019-06-01T00:46:24.381Z,99.90
2019-06-01T00:48:54.449Z,99.90
2019-06-01T00:51:24.921Z,99.90
2019-06-01T00:53:57.351Z,99.90
2019-06-01T00:56:30.070Z,99.90
2019-06-01T00:59:01.962Z,99.90
2019-06-01T01:01:35.611Z,99.90
2019-06-01T01:04:06.280Z,99.90
2019-06-01T01:06:36.325Z,99.90
2019-06-01T01:09:09.622Z,99.90
2019-06-01T01:11:40.210Z,99.90
2019-06-01T01:14:10.651Z,99.90
2019-06-01T01:16:40.644Z,99.90
2019-06-01T01:19:10.866Z,99.90
2019-06-01T01:21:41.472Z,99.90
2019-06-01T01:24:12.535Z,99.90
2019-06-01T01:26:42.493Z,99.90
2019-06-01T01:29:12.513Z,99.90
2019-06-01T01:31:42.502Z,99.90
2019-06-01T01:34:12.432Z,99.90
2019-06-01T01:36:42.704Z,99.90
2019-06-01T01:39:15.463Z,99.90
2019-06-01T01:41:48.018Z,99.90
2019-06-01T01:44:18.174Z,99.90
2019-06-01T01:46:48.618Z,99.90
2019-06-01T01:49:19.011Z,99.90
2019-06-01T01:51:50.326Z,99.90
2019-06-01T01:54:23.266Z,99.90
2019-06-01T01:56:54.136Z,99.90
2019-06-01T01:59:24.310Z,99.90
2019-06-01T02:01:54.618Z,99.90
2019-06-01T02:04:26.364Z,99.90
2019-06-01T02:06:56.359Z,99.90
2019-06-01T02:09:26.266Z,99.90
2019-06-01T02:11:57.760Z,99.90
2019-06-01T02:14:29.852Z,99.90
2019-06-01T02:17:00.260Z,99.90
2019-06-01T02:19:30.436Z,99.90
2019-06-01T02:22:00.737Z,99.90
2019-06-01T02:24:31.158Z,99.90
2019-06-01T02:27:01.475Z,99.90
2019-06-01T02:29:31.478Z,99.90
2019-06-01T02:32:02.445Z,99.90
2019-06-01T02:34:33.202Z,99.90
2019-06-01T02:37:04.536Z,99.90
2019-06-01T02:39:34.672Z,99.90
2019-06-01T02:42:05.745Z,99.90
2019-06-01T02:44:35.735Z,99.90
2019-06-01T02:47:06.390Z,99.90
2019-06-01T02:49:36.551Z,99.90
2019-06-01T02:52:07.013Z,99.90
2019-06-01T02:54:36.907Z,99.90
2019-06-01T02:57:07.401Z,99.90
2019-06-01T02:59:37.382Z,99.90
2019-06-01T03:02:12.464Z,99.90
2019-06-01T03:04:39.679Z,99.90
2019-06-01T03:07:12.760Z,99.90
2019-06-01T03:09:46.115Z,99.90
2019-06-01T03:12:19.047Z,99.90
2019-06-01T03:14:52.004Z,99.90
2019-06-01T03:17:24.592Z,99.90
2019-06-01T03:19:57.670Z,99.90
2019-06-01T03:22:28.966Z,99.90
2019-06-01T03:25:02.068Z,99.90
2019-06-01T03:27:33.052Z,99.90
2019-06-01T03:30:08.946Z,99.90
2019-06-01T03:32:38.262Z,99.90
2019-06-01T03:35:08.945Z,99.90
2019-06-01T03:37:39.359Z,99.90
2019-06-01T03:40:18.570Z,99.90
2019-06-01T03:42:41.548Z,99.90
2019-06-01T03:45:13.382Z,99.90
2019-06-01T03:47:43.807Z,99.90
2019-06-01T03:50:14.196Z,99.90
2019-06-01T03:52:44.137Z,99.90
2019-06-01T03:55:14.107Z,99.90
2019-06-01T03:57:44.123Z,99.90
2019-06-01T04:00:14.573Z,99.90
2019-06-01T04:02:44.501Z,99.90
2019-06-01T04:05:14.468Z,99.90
2019-06-01T04:07:44.682Z,99.90
2019-06-01T04:10:14.900Z,99.90
2019-06-01T04:12:44.852Z,99.90
2019-06-01T04:15:16.810Z,99.90
2019-06-01T04:17:46.765Z,99.90
2019-06-01T04:20:17.389Z,99.90
2019-06-01T04:22:47.667Z,99.90
2019-06-01T04:25:19.031Z,99.90
2019-06-01T04:27:49.016Z,99.90
2019-06-01T04:30:20.655Z,99.90
2019-06-01T04:32:50.933Z,99.90
2019-06-01T04:35:21.162Z,99.90
2019-06-01T04:37:51.122Z,99.90
2019-06-01T04:40:21.112Z,99.90
2019-06-01T04:42:51.357Z,99.90
2019-06-01T04:45:21.227Z,99.90
2019-06-01T04:47:51.326Z,99.90
2019-06-01T04:50:23.103Z,99.90
2019-06-01T04:52:53.101Z,99.90
2019-06-01T04:55:23.072Z,99.90
2019-06-01T04:57:53.657Z,99.90
2019-06-01T05:00:27.727Z,99.90
2019-06-01T05:03:05.078Z,99.90
2019-06-01T05:05:29.513Z,99.90
2019-06-01T05:07:59.568Z,99.90
2019-06-01T05:10:29.472Z,99.90
2019-06-01T05:13:00.159Z,99.90
2019-06-01T05:15:30.128Z,99.90
2019-06-01T05:18:02.363Z,99.90
2019-06-01T05:20:32.359Z,99.90
2019-06-01T05:23:10.548Z,99.90
2019-06-01T05:25:39.869Z,99.90
2019-06-01T05:28:11.111Z,99.90
2019-06-01T05:30:41.471Z,99.90
2019-06-01T05:33:29.284Z,99.90
2019-06-01T05:35:44.707Z,99.90
2019-06-01T05:38:16.499Z,99.90
2019-06-01T05:40:46.602Z,99.90
2019-06-01T05:43:19.300Z,99.90
2019-06-01T05:45:48.442Z,99.90
2019-06-01T05:48:25.018Z,99.90
2019-06-01T05:50:50.059Z,99.90
2019-06-01T05:53:28.008Z,99.90
2019-06-01T05:55:58.469Z,99.90
2019-06-01T05:58:29.349Z,99.90
2019-06-01T06:01:03.226Z,99.90
2019-06-01T06:03:40.491Z,99.90
2019-06-01T06:06:04.902Z,99.90
2019-06-01T06:08:35.978Z,99.90
2019-06-01T06:11:05.943Z,99.90
2019-06-01T06:13:35.860Z,99.90
2019-06-01T06:16:05.997Z,99.90
2019-06-01T06:18:36.189Z,99.90
2019-06-01T06:21:06.437Z,99.90
2019-06-01T06:23:36.703Z,99.90
2019-06-01T06:26:08.017Z,99.90
2019-06-01T06:28:38.048Z,99.90
2019-06-01T06:31:09.458Z,99.90
2019-06-01T06:33:55.896Z,99.90
2019-06-01T06:36:19.791Z,99.90
2019-06-01T06:38:50.026Z,99.90
2019-06-01T06:41:20.722Z,99.90
2019-06-01T06:43:54.304Z,99.90
2019-06-01T06:46:26.211Z,99.90
2019-06-01T06:48:56.762Z,99.90
2019-06-01T06:51:26.985Z,99.90
2019-06-01T06:53:56.942Z,99.90
2019-06-01T06:56:28.554Z,99.90
2019-06-01T06:58:58.846Z,99.90
2019-06-01T07:01:28.829Z,99.90
2019-06-01T07:04:12.188Z,99.90
2019-06-01T07:06:32.434Z,99.90
2019-06-01T07:09:02.919Z,99.90
2019-06-01T07:11:33.062Z,99.90
2019-06-01T07:14:03.004Z,99.90
2019-06-01T07:16:33.310Z,99.90
2019-06-01T07:19:03.745Z,99.90
2019-06-01T07:21:40.859Z,99.90
2019-06-01T07:24:10.906Z,99.90
2019-06-01T07:26:41.213Z,99.90
2019-06-01T07:29:12.740Z,99.90
2019-06-01T07:31:47.758Z,99.90
2019-06-01T07:34:30.859Z,99.90
2019-06-01T07:36:49.916Z,99.90
2019-06-01T07:39:20.579Z,99.90
2019-06-01T07:41:54.840Z,99.90
2019-06-01T07:44:27.371Z,99.90
2019-06-01T07:46:57.343Z,99.90
2019-06-01T07:49:33.465Z,99.90
2019-06-01T07:52:12.842Z,99.90
2019-06-01T07:54:41.858Z,99.90
2019-06-01T07:57:21.598Z,99.90
2019-06-01T07:59:52.078Z,99.90
2019-06-01T08:02:26.303Z,99.90
2019-06-01T08:04:56.649Z,99.90
2019-06-01T08:07:27.707Z,99.90
2019-06-01T08:09:58.051Z,99.90
2019-06-01T08:12:29.544Z,99.90
2019-06-01T08:15:00.305Z,99.90
2019-06-01T08:17:30.344Z,99.90
2019-06-01T08:20:17.273Z,99.90
2019-06-01T08:22:47.813Z,99.90
2019-06-01T08:25:18.031Z,99.90
2019-06-01T08:27:51.122Z,99.90
2019-06-01T08:30:22.562Z,99.90
2019-06-01T08:32:55.866Z,99.90
2019-06-01T08:35:26.964Z,99.90
2019-06-01T08:37:57.004Z,99.90
2019-06-01T08:40:27.367Z,99.90
2019-06-01T08:42:59.112Z,99.90
2019-06-01T08:45:34.357Z,99.90
2019-06-01T08:48:10.298Z,99.90
2019-06-01T08:50:46.134Z,99.90
2019-06-01T08:53:21.491Z,99.90
2019-06-01T08:55:51.767Z,99.90
2019-06-01T08:58:21.793Z,99.90
2019-06-01T09:00:54.641Z,99.90
2019-06-01T09:03:29.694Z,99.90
2019-06-01T09:06:00.375Z,99.90
2019-06-01T09:08:30.922Z,99.90
2019-06-01T09:11:01.463Z,99.90
2019-06-01T09:13:35.469Z,99.90
2019-06-01T09:16:18.243Z,99.90
2019-06-01T09:18:47.747Z,99.90
2019-06-01T09:21:18.073Z,99.90
2019-06-01T09:23:48.068Z,99.90
2019-06-01T09:26:18.509Z,99.90
2019-06-01T09:28:49.380Z,99.90
2019-06-01T09:31:30.229Z,99.90
2019-06-01T09:34:21.875Z,99.90
2019-06-01T09:36:55.527Z,99.90
2019-06-01T09:39:24.109Z,99.90
2019-06-01T09:41:57.665Z,99.90
2019-06-01T09:44:28.906Z,99.90
2019-06-01T09:47:01.099Z,99.90
2019-06-01T09:49:32.660Z,99.90
2019-06-01T09:52:03.319Z,99.90
2019-06-01T09:54:34.684Z,99.90
2019-06-01T09:57:05.822Z,99.90
2019-06-01T09:59:38.472Z,99.90
2019-06-01T10:02:09.423Z,99.90
2019-06-01T10:04:40.030Z,99.90
2019-06-01T10:07:10.630Z,99.90
2019-06-01T10:09:42.080Z,99.90
2019-06-01T10:12:16.276Z,99.90
2019-06-01T10:14:46.369Z,99.90
2019-06-01T10:17:18.877Z,99.90
2019-06-01T10:19:57.329Z,99.90
2019-06-01T10:22:27.638Z,99.90
2019-06-01T10:25:03.181Z,99.90
2019-06-01T10:27:34.511Z,99.90
2019-06-01T10:30:08.203Z,99.90
2019-06-01T10:32:40.541Z,99.90
2019-06-01T10:35:11.103Z,99.90
2019-06-01T10:37:41.707Z,99.90
2019-06-01T10:40:12.496Z,99.90
2019-06-01T10:42:42.819Z,99.90
2019-06-01T10:45:15.342Z,99.90
2019-06-01T10:47:55.103Z,99.90
2019-06-01T10:50:26.392Z,99.90
2019-06-01T10:52:57.127Z,99.90
2019-06-01T10:55:32.110Z,99.90
2019-06-01T10:58:01.988Z,99.90
2019-06-01T11:00:38.673Z,99.90
2019-06-01T11:03:05.166Z,99.90
2019-06-01T11:05:36.741Z,99.90
2019-06-01T11:08:06.932Z,99.90
2019-06-01T11:10:38.940Z,99.90
2019-06-01T11:13:15.635Z,99.90
2019-06-01T11:15:45.769Z,99.90
2019-06-01T11:18:17.251Z,99.90
2019-06-01T11:20:47.480Z,99.90
2019-06-01T11:23:21.608Z,99.90
2019-06-01T11:25:51.983Z,99.90
2019-06-01T11:28:22.554Z,99.90
2019-06-01T11:30:53.221Z,99.90
2019-06-01T11:33:23.328Z,99.90
2019-06-01T11:35:53.412Z,99.90
2019-06-01T11:38:23.398Z,99.90
2019-06-01T11:40:53.767Z,99.90
2019-06-01T11:43:31.793Z,99.90
2019-06-01T11:46:09.307Z,99.90
2019-06-01T11:48:46.465Z,99.90
2019-06-01T11:51:19.180Z,99.90
2019-06-01T11:53:52.143Z,99.90
2019-06-01T11:56:22.323Z,99.90
2019-06-01T11:58:56.719Z,99.90
2019-06-01T12:01:29.528Z,99.90
2019-06-01T12:03:59.949Z,99.90
2019-06-01T12:06:30.883Z,99.90
2019-06-01T12:09:06.301Z,99.90
2019-06-01T12:11:37.796Z,99.90
2019-06-01T12:14:08.348Z,99.90
2019-06-01T12:16:38.492Z,99.90
2019-06-01T12:19:09.924Z,99.90
2019-06-01T12:21:40.912Z,99.90
2019-06-01T12:24:11.545Z,99.90
2019-06-01T12:26:43.413Z,99.90
2019-06-01T12:29:20.467Z,99.90
2019-06-01T12:31:51.425Z,99.90
2019-06-01T12:34:21.537Z,99.90
2019-06-01T12:36:52.268Z,99.90
2019-06-01T12:39:23.773Z,99.90
2019-06-01T12:41:55.601Z,99.90
2019-06-01T12:44:26.048Z,99.90
2019-06-01T12:46:56.565Z,99.90
2019-06-01T12:49:31.278Z,99.90
2019-06-01T12:52:02.908Z,99.90
2019-06-01T12:54:33.153Z,99.90
2019-06-01T12:57:10.389Z,99.90
2019-06-01T12:59:41.078Z,99.90
2019-06-01T13:02:14.935Z,99.90
2019-06-01T13:04:49.973Z,99.90
2019-06-01T13:07:32.267Z,99.90
2019-06-01T13:10:02.733Z,99.90
2019-06-01T13:12:33.154Z,99.90
2019-06-01T13:15:03.214Z,99.90
2019-06-01T13:17:36.359Z,99.90
2019-06-01T13:20:14.497Z,99.90
2019-06-01T13:22:49.875Z,99.90
2019-06-01T13:25:23.366Z,99.90
2019-06-01T13:27:55.524Z,99.90
2019-06-01T13:30:25.798Z,99.90
2019-06-01T13:32:56.533Z,99.90
2019-06-01T13:35:26.887Z,99.90
2019-06-01T13:38:11.597Z,99.70
2019-06-01T13:40:30.597Z,99.90
2019-06-01T13:43:00.896Z,99.90
2019-06-01T13:45:31.508Z,99.60
2019-06-01T13:48:01.728Z,98.40
2019-06-01T13:50:31.989Z,99.20
2019-06-01T13:53:05.213Z,99.60
2019-06-01T13:55:35.596Z,98.10
2019-06-01T13:58:05.964Z,97.10
2019-06-01T14:00:39.261Z,97.40
2019-06-01T14:03:15.375Z,98.00
2019-06-01T14:05:49.032Z,98.00
2019-06-01T14:08:28.408Z,98.70
2019-06-01T14:10:55.446Z,98.20
2019-06-01T14:13:25.300Z,98.40
2019-06-01T14:16:01.278Z,99.10
2019-06-01T14:18:34.399Z,99.50
2019-06-01T14:21:04.974Z,98.30
2019-06-01T14:23:35.523Z,96.80
2019-06-01T14:26:06.502Z,97.10
2019-06-01T14:28:42.810Z,96.10
2019-06-01T14:31:16.351Z,96.80
2019-06-01T14:33:48.387Z,96.60
2019-06-01T14:36:25.385Z,96.50
2019-06-01T14:38:58.879Z,94.80
2019-06-01T14:41:29.923Z,95.30
2019-06-01T14:44:02.375Z,94.60
2019-06-01T14:46:53.598Z,95.50
2019-06-01T14:49:16.344Z,95.00
2019-06-01T14:51:49.967Z,95.20
2019-06-01T14:54:30.146Z,95.30
2019-06-01T14:57:03.290Z,95.60
2019-06-01T14:59:33.961Z,95.80
2019-06-01T15:02:09.651Z,95.10
2019-06-01T15:04:39.899Z,94.80
2019-06-01T15:07:09.928Z,95.60
2019-06-01T15:09:43.518Z,94.10
2019-06-01T15:12:13.871Z,93.80
2019-06-01T15:14:44.297Z,94.20
2019-06-01T15:17:15.114Z,93.00
2019-06-01T15:19:46.881Z,93.30
2019-06-01T15:22:19.605Z,93.90
2019-06-01T15:24:58.450Z,92.20
2019-06-01T15:27:30.986Z,92.60
2019-06-01T15:30:03.129Z,92.50
2019-06-01T15:32:40.014Z,92.90
2019-06-01T15:35:14.763Z,93.60
2019-06-01T15:37:46.714Z,93.10
2019-06-01T15:40:21.691Z,93.00
2019-06-01T15:42:55.247Z,91.40
2019-06-01T15:45:25.815Z,91.60
2019-06-01T15:47:56.005Z,92.20
2019-06-01T15:50:26.250Z,91.40
2019-06-01T15:52:57.085Z,90.80
2019-06-01T15:55:27.758Z,90.90
2019-06-01T15:57:58.505Z,90.20
2019-06-01T16:00:30.740Z,90.50
2019-06-01T16:03:04.470Z,90.10
2019-06-01T16:05:34.648Z,90.50
2019-06-01T16:08:07.710Z,89.00
2019-06-01T16:10:40.079Z,90.30
2019-06-01T16:13:12.454Z,89.20
2019-06-01T16:15:44.048Z,91.40
2019-06-01T16:18:20.944Z,90.70
2019-06-01T16:20:51.343Z,90.40
2019-06-01T16:23:21.969Z,88.20
2019-06-01T16:26:10.845Z,90.00
2019-06-01T16:28:34.546Z,89.60
2019-06-01T16:31:04.864Z,90.70
2019-06-01T16:33:35.893Z,90.20
2019-06-01T16:36:08.748Z,89.60
2019-06-01T16:39:02.709Z,90.00
2019-06-01T16:42:03.958Z,90.40
2019-06-01T16:44:37.184Z,89.90
2019-06-01T16:47:10.537Z,89.60
2019-06-01T16:49:41.456Z,89.70
2019-06-01T16:52:12.010Z,89.30
2019-06-01T16:54:42.468Z,88.80
2019-06-01T16:57:15.873Z,90.10
2019-06-01T16:59:47.150Z,91.10
2019-06-01T17:02:17.426Z,90.50
2019-06-01T17:04:49.109Z,90.70
2019-06-01T17:07:22.334Z,91.30
2019-06-01T17:09:56.638Z,91.10
2019-06-01T17:12:28.741Z,90.40
2019-06-01T17:15:00.827Z,87.90
2019-06-01T17:17:33.466Z,88.40
2019-06-01T17:20:03.829Z,87.60
2019-06-01T17:22:36.174Z,89.80
2019-06-01T17:25:09.549Z,89.90
2019-06-01T17:27:39.691Z,90.20
2019-06-01T17:30:12.086Z,90.40
2019-06-01T17:32:44.853Z,89.20
2019-06-01T17:35:15.978Z,88.70
2019-06-01T17:37:46.215Z,90.00
2019-06-01T17:40:16.697Z,90.40
2019-06-01T17:42:48.222Z,90.80
2019-06-01T17:45:19.279Z,90.80
2019-06-01T17:48:18.130Z,90.10
2019-06-01T17:50:38.470Z,90.70
2019-06-01T17:53:26.543Z,90.30
2019-06-01T17:55:58.378Z,90.50
2019-06-01T17:58:42.925Z,90.60
2019-06-01T18:01:17.776Z,91.50
2019-06-01T18:03:50.597Z,91.80
2019-06-01T18:06:21.433Z,93.10
2019-06-01T18:08:52.011Z,93.20
2019-06-01T18:11:30.065Z,93.90
2019-06-01T18:14:04.112Z,94.40
2019-06-01T18:16:38.608Z,95.40
2019-06-01T18:19:13.823Z,95.70
2019-06-01T18:21:45.023Z,96.00
2019-06-01T18:24:16.754Z,95.90
2019-06-01T18:26:48.882Z,96.80
2019-06-01T18:29:24.580Z,96.80
2019-06-01T18:32:02.999Z,97.20
2019-06-01T18:34:33.724Z,97.90
2019-06-01T18:37:27.558Z,98.00
2019-06-01T18:39:58.974Z,98.20
2019-06-01T18:42:31.435Z,98.60
2019-06-01T18:45:03.486Z,99.10
2019-06-01T18:47:42.386Z,99.30
2019-06-01T18:50:16.164Z,99.80
2019-06-01T18:52:45.341Z,99.90
2019-06-01T18:55:18.280Z,99.90
2019-06-01T18:57:53.575Z,99.90
2019-06-01T19:00:28.770Z,99.90
2019-06-01T19:02:59.475Z,99.90
2019-06-01T19:05:57.803Z,99.90
2019-06-01T19:08:46.363Z,99.90
2019-06-01T19:11:27.387Z,99.90
2019-06-01T19:13:47.698Z,99.90
2019-06-01T19:16:18.321Z,99.90
2019-06-01T19:18:55.588Z,99.90
2019-06-01T19:21:27.570Z,99.90
2019-06-01T19:23:58.213Z,99.90
2019-06-01T19:26:29.035Z,99.90
2019-06-01T19:29:01.350Z,99.90
2019-06-01T19:31:34.091Z,99.90
2019-06-01T19:34:22.326Z,99.90
2019-06-01T19:37:17.196Z,99.90
2019-06-01T19:40:07.008Z,99.90
2019-06-01T19:43:05.844Z,99.90
2019-06-01T19:45:59.469Z,99.90
2019-06-01T19:48:37.878Z,99.90
2019-06-01T19:51:34.157Z,99.90
2019-06-01T19:54:10.848Z,99.90
2019-06-01T19:56:44.894Z,99.90
2019-06-01T19:59:18.056Z,99.90
2019-06-01T20:02:00.665Z,99.90
2019-06-01T20:04:31.615Z,99.90
2019-06-01T20:07:09.178Z,99.90
2019-06-01T20:09:55.921Z,99.90
2019-06-01T20:12:22.605Z,99.90
2019-06-01T20:14:56.795Z,99.90
2019-06-01T20:17:30.120Z,99.90
2019-06-01T20:20:03.289Z,99.90
2019-06-01T20:22:36.246Z,99.90
2019-06-01T20:25:15.199Z,99.90
2019-06-01T20:27:46.383Z,99.90
2019-06-01T20:30:26.446Z,99.90
2019-06-01T20:32:59.842Z,99.90
2019-06-01T20:35:34.122Z,99.90
2019-06-01T20:38:11.855Z,99.90
2019-06-01T20:40:42.540Z,99.90
2019-06-01T20:43:20.840Z,99.90
2019-06-01T20:45:59.043Z,99.90
2019-06-01T20:48:32.197Z,99.90
2019-06-01T20:51:02.606Z,99.90
2019-06-01T20:53:43.925Z,99.90
2019-06-01T20:56:19.792Z,99.90
2019-06-01T20:58:51.562Z,99.90
2019-06-01T21:01:26.897Z,99.90
2019-06-01T21:03:57.669Z,99.90
2019-06-01T21:06:27.903Z,99.90
2019-06-01T21:09:02.502Z,99.90
2019-06-01T21:11:34.662Z,99.90
2019-06-01T21:14:05.635Z,99.90
2019-06-01T21:16:38.151Z,99.90
2019-06-01T21:19:11.506Z,99.90
2019-06-01T21:21:44.574Z,99.90
2019-06-01T21:24:21.132Z,99.90
2019-06-01T21:26:52.250Z,99.90
2019-06-01T21:29:25.250Z,99.90
2019-06-01T21:32:00.911Z,99.90
2019-06-01T21:34:32.805Z,99.90
2019-06-01T21:37:03.276Z,99.90
2019-06-01T21:39:50.818Z,99.90
2019-06-01T21:42:21.782Z,99.90
2019-06-01T21:44:53.547Z,99.90
2019-06-01T21:47:31.285Z,99.90
2019-06-01T21:50:01.878Z,99.90
2019-06-01T21:52:34.387Z,99.90
2019-06-01T21:55:05.485Z,99.90
2019-06-01T21:57:36.079Z,99.90
2019-06-01T22:00:27.937Z,99.90
2019-06-01T22:03:01.556Z,99.90
2019-06-01T22:05:33.449Z,99.90
2019-06-01T22:08:08.973Z,99.90
2019-06-01T22:10:43.553Z,99.90
2019-06-01T22:13:18.615Z,99.90
2019-06-01T22:15:46.233Z,99.90
2019-06-01T22:18:17.502Z,99.90
2019-06-01T22:20:49.379Z,99.90
2019-06-01T22:23:21.931Z,99.90
2019-06-01T22:25:52.090Z,99.90
2019-06-01T22:28:22.323Z,99.90
2019-06-01T22:39:19.768Z,99.90
2019-06-01T22:41:51.258Z,99.90
2019-06-01T22:44:24.595Z,99.90
2019-06-01T22:46:58.099Z,99.90
2019-06-01T22:49:28.902Z,99.90
2019-06-01T22:51:59.225Z,99.90
2019-06-01T22:54:29.741Z,99.90
2019-06-01T22:57:00.058Z,99.90
2019-06-01T22:59:33.096Z,99.90
2019-06-01T23:02:03.348Z,99.90
2019-06-01T23:04:33.405Z,99.90
2019-06-01T23:07:05.966Z,99.90
2019-06-01T23:09:51.499Z,99.90
2019-06-01T23:12:25.395Z,99.90
2019-06-01T23:14:56.017Z,99.90
2019-06-01T23:17:26.184Z,99.90
2019-06-01T23:19:56.407Z,99.90
2019-06-01T23:22:28.163Z,99.90
2019-06-01T23:24:58.395Z,99.90
2019-06-01T23:27:32.611Z,99.90
2019-06-01T23:30:05.187Z,99.90
2019-06-01T23:32:39.100Z,99.90
2019-06-01T23:35:09.522Z,99.90
2019-06-01T23:37:42.944Z,99.90
2019-06-01T23:40:13.657Z,99.90
2019-06-01T23:42:48.158Z,99.90
2019-06-01T23:45:18.482Z,99.90
2019-06-01T23:47:48.460Z,99.90
2019-06-01T23:50:18.544Z,99.90
2019-06-01T23:52:49.253Z,99.90
2019-06-01T23:55:19.238Z,99.90
2019-06-01T23:57:49.286Z,99.90
